sensor_id;sensor_type;location;lat;lon;timestamp;temperature;humidity
3876;DHT22;1953;51.222;6.624;2024-03-17T00:01:57;8.30;1.00
3876;DHT22;1953;51.222;6.624;2024-03-17T00:06:41;8.30;1.00
3876;DHT22;1953;51.222;6.624;2024-03-17T00:11:24;8.30;1.00
3876;DHT22;1953;51.222;6.624;2024-03-17T00:16:06;8.30;1.00
3876;DHT22;1953;51.222;6.624;2024-03-17T00:21:57;8.30;1.00
3876;DHT22;1953;51.222;6.624;2024-03-17T00:26:40;8.20;1.00
3876;DHT22;1953;51.222;6.624;2024-03-17T00:31:24;8.20;1.00
3876;DHT22;1953;51.222;6.624;2024-03-17T00:36:07;8.20;1.00
3876;DHT22;1953;51.222;6.624;2024-03-17T00:40:51;8.20;1.00
3876;DHT22;1953;51.222;6.624;2024-03-17T00:45:33;8.20;1.00
3876;DHT22;1953;51.222;6.624;2024-03-17T00:50:16;8.30;1.00
3876;DHT22;1953;51.222;6.624;2024-03-17T00:54:59;8.30;1.00
3876;DHT22;1953;51.222;6.624;2024-03-17T00:59:43;8.30;1.00
3876;DHT22;1953;51.222;6.624;2024-03-17T01:04:25;8.40;1.00
3876;DHT22;1953;51.222;6.624;2024-03-17T01:09:09;8.40;1.00
3876;DHT22;1953;51.222;6.624;2024-03-17T01:13:52;8.40;1.00
3876;DHT22;1953;51.222;6.624;2024-03-17T01:18:36;8.30;1.00
3876;DHT22;1953;51.222;6.624;2024-03-17T01:23:18;8.30;1.00
3876;DHT22;1953;51.222;6.624;2024-03-17T01:28:01;8.30;1.00
3876;DHT22;1953;51.222;6.624;2024-03-17T01:32:44;8.30;1.00
3876;DHT22;1953;51.222;6.624;2024-03-17T01:37:28;8.30;1.00
3876;DHT22;1953;51.222;6.624;2024-03-17T01:42:13;8.30;1.00
3876;DHT22;1953;51.222;6.624;2024-03-17T01:46:56;8.30;1.00
3876;DHT22;1953;51.222;6.624;2024-03-17T01:51:39;8.30;1.00
3876;DHT22;1953;51.222;6.624;2024-03-17T01:56:23;8.20;1.00
3876;DHT22;1953;51.222;6.624;2024-03-17T02:01:05;8.00;1.00
3876;DHT22;1953;51.222;6.624;2024-03-17T02:05:48;8.00;1.00
3876;DHT22;1953;51.222;6.624;2024-03-17T02:10:31;8.00;1.00
3876;DHT22;1953;51.222;6.624;2024-03-17T02:15:15;8.00;1.00
3876;DHT22;1953;51.222;6.624;2024-03-17T02:19:58;7.80;1.00
3876;DHT22;1953;51.222;6.624;2024-03-17T02:24:42;7.80;1.00
3876;DHT22;1953;51.222;6.624;2024-03-17T02:29:25;7.80;1.00
3876;DHT22;1953;51.222;6.624;2024-03-17T02:34:07;7.70;1.00
3876;DHT22;1953;51.222;6.624;2024-03-17T02:38:50;7.70;1.00
3876;DHT22;1953;51.222;6.624;2024-03-17T02:43:51;7.60;1.00
3876;DHT22;1953;51.222;6.624;2024-03-17T02:48:34;7.60;1.00
3876;DHT22;1953;51.222;6.624;2024-03-17T02:53:18;7.60;1.00
3876;DHT22;1953;51.222;6.624;2024-03-17T02:58:01;7.50;1.00
3876;DHT22;1953;51.222;6.624;2024-03-17T03:02:45;7.40;1.00
3876;DHT22;1953;51.222;6.624;2024-03-17T03:07:28;7.40;1.00
3876;DHT22;1953;51.222;6.624;2024-03-17T03:12:10;7.40;1.00
3876;DHT22;1953;51.222;6.624;2024-03-17T03:16:53;7.40;1.00
3876;DHT22;1953;51.222;6.624;2024-03-17T03:21:37;7.40;1.00
3876;DHT22;1953;51.222;6.624;2024-03-17T03:26:19;7.50;1.00
3876;DHT22;1953;51.222;6.624;2024-03-17T03:31:02;7.40;1.00
3876;DHT22;1953;51.222;6.624;2024-03-17T03:35:44;7.40;1.00
3876;DHT22;1953;51.222;6.624;2024-03-17T03:40:29;7.40;1.00
3876;DHT22;1953;51.222;6.624;2024-03-17T03:45:12;7.40;1.00
3876;DHT22;1953;51.222;6.624;2024-03-17T03:49:54;7.40;1.00
3876;DHT22;1953;51.222;6.624;2024-03-17T03:54:37;7.40;1.00
3876;DHT22;1953;51.222;6.624;2024-03-17T03:59:21;7.40;1.00
3876;DHT22;1953;51.222;6.624;2024-03-17T04:04:05;7.40;1.00
3876;DHT22;1953;51.222;6.624;2024-03-17T04:08:47;7.50;1.00
3876;DHT22;1953;51.222;6.624;2024-03-17T04:13:31;7.50;1.00
3876;DHT22;1953;51.222;6.624;2024-03-17T04:18:15;7.60;1.00
3876;DHT22;1953;51.222;6.624;2024-03-17T04:22:59;7.60;1.00
3876;DHT22;1953;51.222;6.624;2024-03-17T04:27:41;7.60;1.00
3876;DHT22;1953;51.222;6.624;2024-03-17T04:32:24;7.70;1.00
3876;DHT22;1953;51.222;6.624;2024-03-17T04:37:09;7.70;1.00
3876;DHT22;1953;51.222;6.624;2024-03-17T04:41:53;7.80;1.00
3876;DHT22;1953;51.222;6.624;2024-03-17T04:46:35;7.80;1.00
3876;DHT22;1953;51.222;6.624;2024-03-17T04:51:18;7.80;1.00
3876;DHT22;1953;51.222;6.624;2024-03-17T04:56:03;7.80;1.00
3876;DHT22;1953;51.222;6.624;2024-03-17T05:00:46;7.90;1.00
3876;DHT22;1953;51.222;6.624;2024-03-17T05:05:29;7.80;1.00
3876;DHT22;1953;51.222;6.624;2024-03-17T05:10:11;7.80;1.00
3876;DHT22;1953;51.222;6.624;2024-03-17T05:14:55;7.80;1.00
3876;DHT22;1953;51.222;6.624;2024-03-17T05:19:38;7.80;1.00
3876;DHT22;1953;51.222;6.624;2024-03-17T05:24:20;7.80;1.00
3876;DHT22;1953;51.222;6.624;2024-03-17T05:29:03;7.80;1.00
3876;DHT22;1953;51.222;6.624;2024-03-17T05:33:47;7.80;1.00
3876;DHT22;1953;51.222;6.624;2024-03-17T05:38:30;7.80;1.00
3876;DHT22;1953;51.222;6.624;2024-03-17T05:43:12;7.80;1.00
3876;DHT22;1953;51.222;6.624;2024-03-17T05:47:55;7.70;1.00
3876;DHT22;1953;51.222;6.624;2024-03-17T05:52:39;7.70;1.00
3876;DHT22;1953;51.222;6.624;2024-03-17T05:57:21;7.70;1.00
3876;DHT22;1953;51.222;6.624;2024-03-17T06:02:04;7.60;1.00
3876;DHT22;1953;51.222;6.624;2024-03-17T06:06:46;7.60;1.00
3876;DHT22;1953;51.222;6.624;2024-03-17T06:11:31;7.50;1.00
3876;DHT22;1953;51.222;6.624;2024-03-17T06:16:15;7.50;1.00
3876;DHT22;1953;51.222;6.624;2024-03-17T06:20:58;7.50;1.00
3876;DHT22;1953;51.222;6.624;2024-03-17T06:25:41;7.50;1.00
3876;DHT22;1953;51.222;6.624;2024-03-17T06:30:25;7.40;1.00
3876;DHT22;1953;51.222;6.624;2024-03-17T06:35:08;7.40;1.00
3876;DHT22;1953;51.222;6.624;2024-03-17T06:39:52;7.50;1.00
3876;DHT22;1953;51.222;6.624;2024-03-17T06:44:34;7.60;1.00
3876;DHT22;1953;51.222;6.624;2024-03-17T06:49:18;7.60;1.00
3876;DHT22;1953;51.222;6.624;2024-03-17T06:54:02;7.70;1.00
3876;DHT22;1953;51.222;6.624;2024-03-17T06:58:44;7.70;1.00
3876;DHT22;1953;51.222;6.624;2024-03-17T07:03:29;7.70;1.00
3876;DHT22;1953;51.222;6.624;2024-03-17T07:08:13;7.70;1.00
3876;DHT22;1953;51.222;6.624;2024-03-17T07:12:56;7.70;1.00
3876;DHT22;1953;51.222;6.624;2024-03-17T07:17:38;7.80;1.00
3876;DHT22;1953;51.222;6.624;2024-03-17T07:22:21;7.80;1.00
3876;DHT22;1953;51.222;6.624;2024-03-17T07:27:09;7.80;1.00
3876;DHT22;1953;51.222;6.624;2024-03-17T07:31:54;7.90;1.00
3876;DHT22;1953;51.222;6.624;2024-03-17T07:36:37;8.00;1.00
3876;DHT22;1953;51.222;6.624;2024-03-17T07:41:20;8.20;1.00
3876;DHT22;1953;51.222;6.624;2024-03-17T07:46:07;8.40;1.00
3876;DHT22;1953;51.222;6.624;2024-03-17T07:50:53;8.60;1.00
3876;DHT22;1953;51.222;6.624;2024-03-17T07:55:36;8.70;1.00
3876;DHT22;1953;51.222;6.624;2024-03-17T08:00:19;8.80;1.00
3876;DHT22;1953;51.222;6.624;2024-03-17T08:05:04;9.00;1.00
3876;DHT22;1953;51.222;6.624;2024-03-17T08:09:46;9.10;1.00
3876;DHT22;1953;51.222;6.624;2024-03-17T08:14:29;9.20;1.00
3876;DHT22;1953;51.222;6.624;2024-03-17T08:19:11;9.40;1.00
3876;DHT22;1953;51.222;6.624;2024-03-17T08:23:55;9.50;1.00
3876;DHT22;1953;51.222;6.624;2024-03-17T08:28:38;9.70;1.00
3876;DHT22;1953;51.222;6.624;2024-03-17T08:33:21;9.80;1.00
3876;DHT22;1953;51.222;6.624;2024-03-17T08:38:04;10.10;1.00
3876;DHT22;1953;51.222;6.624;2024-03-17T08:42:48;10.30;1.00
3876;DHT22;1953;51.222;6.624;2024-03-17T08:47:30;10.40;1.00
3876;DHT22;1953;51.222;6.624;2024-03-17T08:52:13;10.60;1.00
3876;DHT22;1953;51.222;6.624;2024-03-17T08:56:56;10.70;1.00
3876;DHT22;1953;51.222;6.624;2024-03-17T09:01:39;11.00;1.00
3876;DHT22;1953;51.222;6.624;2024-03-17T09:06:22;11.10;1.00
3876;DHT22;1953;51.222;6.624;2024-03-17T09:11:12;11.30;1.00
3876;DHT22;1953;51.222;6.624;2024-03-17T09:15:57;11.30;1.00
3876;DHT22;1953;51.222;6.624;2024-03-17T09:20:42;11.50;1.00
3876;DHT22;1953;51.222;6.624;2024-03-17T09:25:25;11.70;1.00
3876;DHT22;1953;51.222;6.624;2024-03-17T09:30:08;11.80;1.00
3876;DHT22;1953;51.222;6.624;2024-03-17T09:34:52;12.00;1.00
3876;DHT22;1953;51.222;6.624;2024-03-17T09:39:36;12.10;1.00
3876;DHT22;1953;51.222;6.624;2024-03-17T09:44:19;12.20;1.00
3876;DHT22;1953;51.222;6.624;2024-03-17T09:49:02;12.40;1.00
3876;DHT22;1953;51.222;6.624;2024-03-17T09:53:45;12.50;1.00
3876;DHT22;1953;51.222;6.624;2024-03-17T09:58:29;12.60;1.00
3876;DHT22;1953;51.222;6.624;2024-03-17T10:03:12;12.60;1.00
3876;DHT22;1953;51.222;6.624;2024-03-17T10:07:54;12.50;1.00
3876;DHT22;1953;51.222;6.624;2024-03-17T10:12:37;12.60;1.00
3876;DHT22;1953;51.222;6.624;2024-03-17T10:17:30;12.90;1.00
3876;DHT22;1953;51.222;6.624;2024-03-17T10:22:13;13.10;1.00
3876;DHT22;1953;51.222;6.624;2024-03-17T10:26:56;13.20;1.00
3876;DHT22;1953;51.222;6.624;2024-03-17T10:31:39;13.50;1.00
3876;DHT22;1953;51.222;6.624;2024-03-17T10:36:23;13.70;1.00
3876;DHT22;1953;51.222;6.624;2024-03-17T10:41:06;13.80;1.00
3876;DHT22;1953;51.222;6.624;2024-03-17T10:45:48;14.00;1.00
3876;DHT22;1953;51.222;6.624;2024-03-17T10:50:35;14.00;1.00
3876;DHT22;1953;51.222;6.624;2024-03-17T10:55:24;14.10;1.00
3876;DHT22;1953;51.222;6.624;2024-03-17T11:00:07;14.30;1.00
3876;DHT22;1953;51.222;6.624;2024-03-17T11:04:51;14.50;1.00
3876;DHT22;1953;51.222;6.624;2024-03-17T11:09:34;14.60;1.00
3876;DHT22;1953;51.222;6.624;2024-03-17T11:14:19;14.60;1.00
3876;DHT22;1953;51.222;6.624;2024-03-17T11:19:06;14.80;1.00
3876;DHT22;1953;51.222;6.624;2024-03-17T11:23:56;14.90;1.00
3876;DHT22;1953;51.222;6.624;2024-03-17T11:28:47;15.20;1.00
3876;DHT22;1953;51.222;6.624;2024-03-17T11:33:49;15.30;1.00
3876;DHT22;1953;51.222;6.624;2024-03-17T11:38:52;15.60;1.00
3876;DHT22;1953;51.222;6.624;2024-03-17T11:43:35;15.60;1.00
3876;DHT22;1953;51.222;6.624;2024-03-17T11:48:19;15.60;1.00
3876;DHT22;1953;51.222;6.624;2024-03-17T11:53:04;15.80;1.00
3876;DHT22;1953;51.222;6.624;2024-03-17T11:57:55;16.10;1.00
3876;DHT22;1953;51.222;6.624;2024-03-17T12:02:38;16.30;1.00
3876;DHT22;1953;51.222;6.624;2024-03-17T12:07:22;16.50;1.00
3876;DHT22;1953;51.222;6.624;2024-03-17T12:12:09;16.60;1.00
3876;DHT22;1953;51.222;6.624;2024-03-17T12:16:52;16.80;1.00
3876;DHT22;1953;51.222;6.624;2024-03-17T12:22:59;18.00;1.00
3876;DHT22;1953;51.222;6.624;2024-03-17T12:27:44;16.80;1.00
3876;DHT22;1953;51.222;6.624;2024-03-17T12:32:26;17.10;1.00
3876;DHT22;1953;51.222;6.624;2024-03-17T12:37:15;17.20;1.00
3876;DHT22;1953;51.222;6.624;2024-03-17T12:42:04;17.30;1.00
3876;DHT22;1953;51.222;6.624;2024-03-17T12:46:47;17.50;1.00
3876;DHT22;1953;51.222;6.624;2024-03-17T12:51:33;17.50;1.00
3876;DHT22;1953;51.222;6.624;2024-03-17T12:56:23;17.40;1.00
3876;DHT22;1953;51.222;6.624;2024-03-17T13:01:24;17.40;1.00
3876;DHT22;1953;51.222;6.624;2024-03-17T13:06:09;17.40;1.00
3876;DHT22;1953;51.222;6.624;2024-03-17T13:10:53;17.50;1.00
3876;DHT22;1953;51.222;6.624;2024-03-17T13:15:35;17.70;1.00
3876;DHT22;1953;51.222;6.624;2024-03-17T13:20:19;17.80;1.00
3876;DHT22;1953;51.222;6.624;2024-03-17T13:25:02;17.70;1.00
3876;DHT22;1953;51.222;6.624;2024-03-17T13:29:48;17.50;1.00
3876;DHT22;1953;51.222;6.624;2024-03-17T13:34:31;17.50;1.00
3876;DHT22;1953;51.222;6.624;2024-03-17T13:39:14;17.30;1.00
3876;DHT22;1953;51.222;6.624;2024-03-17T13:44:00;17.20;1.00
3876;DHT22;1953;51.222;6.624;2024-03-17T13:48:43;17.30;1.00
3876;DHT22;1953;51.222;6.624;2024-03-17T13:53:25;17.40;1.00
3876;DHT22;1953;51.222;6.624;2024-03-17T13:58:09;17.30;1.00
3876;DHT22;1953;51.222;6.624;2024-03-17T14:02:54;17.20;1.00
3876;DHT22;1953;51.222;6.624;2024-03-17T14:07:37;17.30;1.00
3876;DHT22;1953;51.222;6.624;2024-03-17T14:12:20;17.40;1.00
3876;DHT22;1953;51.222;6.624;2024-03-17T14:17:04;17.30;1.00
3876;DHT22;1953;51.222;6.624;2024-03-17T14:21:47;17.30;1.00
3876;DHT22;1953;51.222;6.624;2024-03-17T14:26:30;17.40;1.00
3876;DHT22;1953;51.222;6.624;2024-03-17T14:31:12;17.30;1.00
3876;DHT22;1953;51.222;6.624;2024-03-17T14:35:57;17.40;1.00
3876;DHT22;1953;51.222;6.624;2024-03-17T14:40:40;17.40;1.00
3876;DHT22;1953;51.222;6.624;2024-03-17T14:45:22;17.60;1.00
3876;DHT22;1953;51.222;6.624;2024-03-17T14:50:06;18.00;1.00
3876;DHT22;1953;51.222;6.624;2024-03-17T14:54:50;18.40;1.00
3876;DHT22;1953;51.222;6.624;2024-03-17T14:59:35;18.60;1.00
3876;DHT22;1953;51.222;6.624;2024-03-17T15:04:17;18.70;1.00
3876;DHT22;1953;51.222;6.624;2024-03-17T15:09:01;18.60;1.00
3876;DHT22;1953;51.222;6.624;2024-03-17T15:13:46;18.80;1.00
3876;DHT22;1953;51.222;6.624;2024-03-17T15:18:28;18.50;1.00
3876;DHT22;1953;51.222;6.624;2024-03-17T15:23:12;18.50;1.00
3876;DHT22;1953;51.222;6.624;2024-03-17T15:27:56;18.40;1.00
3876;DHT22;1953;51.222;6.624;2024-03-17T15:32:42;18.30;1.00
3876;DHT22;1953;51.222;6.624;2024-03-17T15:37:25;18.40;1.00
3876;DHT22;1953;51.222;6.624;2024-03-17T15:42:07;18.30;1.00
3876;DHT22;1953;51.222;6.624;2024-03-17T15:46:54;18.50;1.00
3876;DHT22;1953;51.222;6.624;2024-03-17T15:51:37;18.70;1.00
3876;DHT22;1953;51.222;6.624;2024-03-17T15:56:20;18.70;1.00
3876;DHT22;1953;51.222;6.624;2024-03-17T16:01:05;18.50;1.00
3876;DHT22;1953;51.222;6.624;2024-03-17T16:05:49;18.40;1.00
3876;DHT22;1953;51.222;6.624;2024-03-17T16:10:33;18.20;1.00
3876;DHT22;1953;51.222;6.624;2024-03-17T16:15:16;18.10;1.00
3876;DHT22;1953;51.222;6.624;2024-03-17T16:19:59;17.80;1.00
3876;DHT22;1953;51.222;6.624;2024-03-17T16:24:42;17.90;1.00
3876;DHT22;1953;51.222;6.624;2024-03-17T16:29:29;17.70;1.00
3876;DHT22;1953;51.222;6.624;2024-03-17T16:34:11;17.50;1.00
3876;DHT22;1953;51.222;6.624;2024-03-17T16:38:54;17.40;1.00
3876;DHT22;1953;51.222;6.624;2024-03-17T16:43:45;17.30;1.00
3876;DHT22;1953;51.222;6.624;2024-03-17T16:48:32;17.40;1.00
3876;DHT22;1953;51.222;6.624;2024-03-17T16:53:14;17.40;1.00
3876;DHT22;1953;51.222;6.624;2024-03-17T16:57:57;17.30;1.00
3876;DHT22;1953;51.222;6.624;2024-03-17T17:02:40;17.10;1.00
3876;DHT22;1953;51.222;6.624;2024-03-17T17:07:24;17.00;1.00
3876;DHT22;1953;51.222;6.624;2024-03-17T17:12:07;16.90;1.00
3876;DHT22;1953;51.222;6.624;2024-03-17T17:16:50;16.80;1.00
3876;DHT22;1953;51.222;6.624;2024-03-17T17:21:33;16.70;1.00
3876;DHT22;1953;51.222;6.624;2024-03-17T17:26:18;16.60;1.00
3876;DHT22;1953;51.222;6.624;2024-03-17T17:31:01;16.50;1.00
3876;DHT22;1953;51.222;6.624;2024-03-17T17:35:43;16.40;1.00
3876;DHT22;1953;51.222;6.624;2024-03-17T17:40:26;16.30;1.00
3876;DHT22;1953;51.222;6.624;2024-03-17T17:45:11;16.20;1.00
3876;DHT22;1953;51.222;6.624;2024-03-17T17:49:54;16.00;1.00
3876;DHT22;1953;51.222;6.624;2024-03-17T17:54:37;15.90;1.00
3876;DHT22;1953;51.222;6.624;2024-03-17T17:59:19;15.80;1.00
3876;DHT22;1953;51.222;6.624;2024-03-17T18:04:03;15.70;1.00
3876;DHT22;1953;51.222;6.624;2024-03-17T18:08:47;15.70;1.00
3876;DHT22;1953;51.222;6.624;2024-03-17T18:13:30;15.70;1.00
3876;DHT22;1953;51.222;6.624;2024-03-17T18:18:12;15.70;1.00
3876;DHT22;1953;51.222;6.624;2024-03-17T18:22:56;15.60;1.00
3876;DHT22;1953;51.222;6.624;2024-03-17T18:27:38;15.60;1.00
3876;DHT22;1953;51.222;6.624;2024-03-17T18:32:21;15.50;1.00
3876;DHT22;1953;51.222;6.624;2024-03-17T18:37:04;15.40;1.00
3876;DHT22;1953;51.222;6.624;2024-03-17T18:41:47;15.40;1.00
3876;DHT22;1953;51.222;6.624;2024-03-17T18:46:30;15.20;1.00
3876;DHT22;1953;51.222;6.624;2024-03-17T18:51:13;15.10;1.00
3876;DHT22;1953;51.222;6.624;2024-03-17T18:55:57;15.00;1.00
3876;DHT22;1953;51.222;6.624;2024-03-17T19:00:42;14.90;1.00
3876;DHT22;1953;51.222;6.624;2024-03-17T19:05:27;14.90;1.00
3876;DHT22;1953;51.222;6.624;2024-03-17T19:10:14;14.80;1.00
3876;DHT22;1953;51.222;6.624;2024-03-17T19:14:59;14.70;1.00
3876;DHT22;1953;51.222;6.624;2024-03-17T19:19:43;14.70;1.00
3876;DHT22;1953;51.222;6.624;2024-03-17T19:24:27;14.90;1.00
3876;DHT22;1953;51.222;6.624;2024-03-17T19:29:09;14.50;1.00
3876;DHT22;1953;51.222;6.624;2024-03-17T19:33:52;14.50;1.00
3876;DHT22;1953;51.222;6.624;2024-03-17T19:38:36;14.30;1.00
3876;DHT22;1953;51.222;6.624;2024-03-17T19:43:20;14.30;1.00
3876;DHT22;1953;51.222;6.624;2024-03-17T19:48:03;14.20;1.00
3876;DHT22;1953;51.222;6.624;2024-03-17T19:52:46;14.20;1.00
3876;DHT22;1953;51.222;6.624;2024-03-17T19:57:30;14.10;1.00
3876;DHT22;1953;51.222;6.624;2024-03-17T20:02:13;14.10;1.00
3876;DHT22;1953;51.222;6.624;2024-03-17T20:06:55;14.10;1.00
3876;DHT22;1953;51.222;6.624;2024-03-17T20:11:39;14.00;1.00
3876;DHT22;1953;51.222;6.624;2024-03-17T20:16:24;14.10;1.00
3876;DHT22;1953;51.222;6.624;2024-03-17T20:21:08;14.00;1.00
3876;DHT22;1953;51.222;6.624;2024-03-17T20:25:51;14.00;1.00
3876;DHT22;1953;51.222;6.624;2024-03-17T20:30:34;14.00;1.00
3876;DHT22;1953;51.222;6.624;2024-03-17T20:35:18;13.90;1.00
3876;DHT22;1953;51.222;6.624;2024-03-17T20:40:01;13.70;1.00
3876;DHT22;1953;51.222;6.624;2024-03-17T20:44:43;13.60;1.00
3876;DHT22;1953;51.222;6.624;2024-03-17T20:49:26;13.60;1.00
3876;DHT22;1953;51.222;6.624;2024-03-17T20:54:10;13.50;1.00
3876;DHT22;1953;51.222;6.624;2024-03-17T20:58:52;13.50;1.00
3876;DHT22;1953;51.222;6.624;2024-03-17T21:03:35;13.40;1.00
3876;DHT22;1953;51.222;6.624;2024-03-17T21:08:18;13.40;1.00
3876;DHT22;1953;51.222;6.624;2024-03-17T21:13:01;13.40;1.00
3876;DHT22;1953;51.222;6.624;2024-03-17T21:17:46;13.30;1.00
3876;DHT22;1953;51.222;6.624;2024-03-17T21:22:28;13.20;1.00
3876;DHT22;1953;51.222;6.624;2024-03-17T21:27:11;13.10;1.00
3876;DHT22;1953;51.222;6.624;2024-03-17T21:31:55;13.00;1.00
3876;DHT22;1953;51.222;6.624;2024-03-17T21:36:38;12.90;1.00
3876;DHT22;1953;51.222;6.624;2024-03-17T21:41:21;13.00;1.00
3876;DHT22;1953;51.222;6.624;2024-03-17T21:46:05;12.90;1.00
3876;DHT22;1953;51.222;6.624;2024-03-17T21:50:55;12.80;1.00
3876;DHT22;1953;51.222;6.624;2024-03-17T21:55:38;12.70;1.00
3876;DHT22;1953;51.222;6.624;2024-03-17T22:00:20;12.70;1.00
3876;DHT22;1953;51.222;6.624;2024-03-17T22:05:03;12.70;1.00
3876;DHT22;1953;51.222;6.624;2024-03-17T22:09:47;12.60;1.00
3876;DHT22;1953;51.222;6.624;2024-03-17T22:14:30;12.70;1.00
3876;DHT22;1953;51.222;6.624;2024-03-17T22:19:12;12.60;1.00
3876;DHT22;1953;51.222;6.624;2024-03-17T22:23:55;12.60;1.00
3876;DHT22;1953;51.222;6.624;2024-03-17T22:28:39;12.50;1.00
3876;DHT22;1953;51.222;6.624;2024-03-17T22:33:22;12.50;1.00
3876;DHT22;1953;51.222;6.624;2024-03-17T22:38:07;12.40;1.00
3876;DHT22;1953;51.222;6.624;2024-03-17T22:42:50;12.30;1.00
3876;DHT22;1953;51.222;6.624;2024-03-17T22:47:33;12.30;1.00
3876;DHT22;1953;51.222;6.624;2024-03-17T22:52:16;12.30;1.00
3876;DHT22;1953;51.222;6.624;2024-03-17T22:56:59;12.30;1.00
3876;DHT22;1953;51.222;6.624;2024-03-17T23:01:43;12.40;1.00
3876;DHT22;1953;51.222;6.624;2024-03-17T23:06:28;12.40;1.00
3876;DHT22;1953;51.222;6.624;2024-03-17T23:11:11;12.30;1.00
3876;DHT22;1953;51.222;6.624;2024-03-17T23:15:53;12.40;1.00
3876;DHT22;1953;51.222;6.624;2024-03-17T23:20:38;12.30;1.00
3876;DHT22;1953;51.222;6.624;2024-03-17T23:25:22;12.30;1.00
3876;DHT22;1953;51.222;6.624;2024-03-17T23:30:06;12.20;1.00
3876;DHT22;1953;51.222;6.624;2024-03-17T23:34:50;12.10;1.00
3876;DHT22;1953;51.222;6.624;2024-03-17T23:39:33;12.00;1.00
3876;DHT22;1953;51.222;6.624;2024-03-17T23:44:16;12.00;1.00
3876;DHT22;1953;51.222;6.624;2024-03-17T23:49:00;12.00;1.00
3876;DHT22;1953;51.222;6.624;2024-03-17T23:53:42;12.00;1.00
3876;DHT22;1953;51.222;6.624;2024-03-17T23:58:25;11.90;1.00
